Time;durP1;ratioP1;P1;durP2;ratioP2;P2;SDS_P1;SDS_P2;PMS_P1;PMS_P2;Temp;Humidity;BMP_temperature;BMP_pressure;BME280_temperature;BME280_humidity;BME280_pressure;Samples;Min_cycle;Max_cycle;Signal;HPM_P1;HPM_P2
2023/10/28 00:01:45;;;;;;;1.70;1.60;;;;;;;;;;4931050;29;20586;-63
2023/10/28 00:04:13;;;;;;;6.85;2.10;;;;;;;;;;4940992;29;20691;-63
2023/10/28 00:06:41;;;;;;;2.10;1.90;;;;;;;;;;4937157;29;20907;-62
2023/10/28 00:09:10;;;;;;;5.20;2.50;;;;;;;;;;4938656;29;20654;-63
2023/10/28 00:11:38;;;;;;;3.03;1.85;;;;;;;;;;4954263;29;20295;-64
2023/10/28 00:14:08;;;;;;;4.25;2.13;;;;;;;;;;4948850;29;20199;-63
2023/10/28 00:16:36;;;;;;;2.15;1.92;;;;;;;;;;4947638;29;20252;-66
2023/10/28 00:19:07;;;;;;;1.90;1.80;;;;;;;;;;4937012;29;20208;-60
2023/10/28 00:21:35;;;;;;;2.03;1.75;;;;;;;;;;4937056;29;20201;-63
2023/10/28 00:24:04;;;;;;;2.00;1.90;;;;;;;;;;4943011;29;20591;-62
2023/10/28 00:26:32;;;;;;;1.33;1.23;;;;;;;;;;4936684;29;20204;-63
2023/10/28 00:29:00;;;;;;;1.65;1.55;;;;;;;;;;4937633;29;20584;-62
2023/10/28 00:31:31;;;;;;;1.17;1.08;;;;;;;;;;4953806;29;20210;-62
2023/10/28 00:33:59;;;;;;;2.05;1.42;;;;;;;;;;4946349;29;20196;-63
2023/10/28 00:36:28;;;;;;;2.55;1.10;;;;;;;;;;4941689;29;20232;-63
2023/10/28 00:38:56;;;;;;;1.20;1.10;;;;;;;;;;4936197;29;20236;-65
2023/10/28 00:41:24;;;;;;;1.08;1.05;;;;;;;;;;4936810;29;20209;-63
2023/10/28 00:43:52;;;;;;;1.30;1.20;;;;;;;;;;4938543;29;20236;-61
2023/10/28 00:46:21;;;;;;;2.20;1.17;;;;;;;;;;4946571;29;20568;-61
2023/10/28 00:48:52;;;;;;;1.10;1.00;;;;;;;;;;4937498;29;20711;-64
2023/10/28 00:51:20;;;;;;;3.17;1.13;;;;;;;;;;4937102;29;20201;-60
2023/10/28 00:53:49;;;;;;;1.90;1.55;;;;;;;;;;4937158;29;20215;-62
2023/10/28 00:56:18;;;;;;;1.70;1.17;;;;;;;;;;4936567;29;20208;-62
2023/10/28 00:58:47;;;;;;;1.77;1.27;;;;;;;;;;4938604;29;20288;-63
2023/10/28 01:01:15;;;;;;;1.10;1.00;;;;;;;;;;4947942;29;20255;-63
2023/10/28 01:03:44;;;;;;;1.95;1.25;;;;;;;;;;4939618;29;20224;-65
2023/10/28 01:06:14;;;;;;;1.27;1.10;;;;;;;;;;4937671;29;20211;-61
2023/10/28 01:08:42;;;;;;;1.20;1.10;;;;;;;;;;4941007;29;20569;-61
2023/10/28 01:11:12;;;;;;;2.85;1.27;;;;;;;;;;4940264;29;20208;-61
2023/10/28 01:13:41;;;;;;;1.00;1.00;;;;;;;;;;4940915;29;20723;-61
2023/10/28 01:16:10;;;;;;;2.05;1.33;;;;;;;;;;4942980;29;20218;-61
2023/10/28 01:18:38;;;;;;;1.60;0.80;;;;;;;;;;4944171;29;20212;-63
2023/10/28 01:21:11;;;;;;;2.00;1.10;;;;;;;;;;4940650;29;20551;-65
2023/10/28 01:23:40;;;;;;;2.10;1.13;;;;;;;;;;4939797;29;20193;-60
2023/10/28 01:26:08;;;;;;;0.80;0.80;;;;;;;;;;4940333;29;20204;-61
2023/10/28 01:28:36;;;;;;;1.25;1.15;;;;;;;;;;4940788;29;20569;-64
2023/10/28 01:31:05;;;;;;;6.35;1.52;;;;;;;;;;4950214;29;20192;-62
2023/10/28 01:33:34;;;;;;;1.40;1.10;;;;;;;;;;4940553;29;20234;-61
2023/10/28 01:36:03;;;;;;;3.25;1.20;;;;;;;;;;4944329;29;20218;-61
2023/10/28 01:38:32;;;;;;;1.35;1.25;;;;;;;;;;4949631;29;20710;-63
2023/10/28 01:41:01;;;;;;;1.63;1.10;;;;;;;;;;4948574;29;20212;-61
2023/10/28 01:43:29;;;;;;;1.25;1.10;;;;;;;;;;4957455;28;20228;-63
2023/10/28 01:45:57;;;;;;;2.80;1.20;;;;;;;;;;4940540;29;20216;-62
2023/10/28 01:48:26;;;;;;;2.65;0.95;;;;;;;;;;4941571;29;20496;-61
2023/10/28 01:50:55;;;;;;;2.53;1.35;;;;;;;;;;4939017;29;20208;-61
2023/10/28 01:53:24;;;;;;;2.05;1.30;;;;;;;;;;4956561;29;20203;-60
2023/10/28 01:55:54;;;;;;;5.88;1.60;;;;;;;;;;4957824;29;20283;-61
2023/10/28 01:58:22;;;;;;;1.58;1.23;;;;;;;;;;4940364;29;20209;-61
2023/10/28 02:00:50;;;;;;;2.17;1.50;;;;;;;;;;4938133;29;20204;-61
2023/10/28 02:03:19;;;;;;;1.35;1.17;;;;;;;;;;4940537;29;20287;-61
2023/10/28 02:05:47;;;;;;;2.83;1.35;;;;;;;;;;4945607;29;20231;-62
2023/10/28 02:08:15;;;;;;;3.38;1.70;;;;;;;;;;4956815;28;20200;-61
2023/10/28 02:10:43;;;;;;;7.30;2.17;;;;;;;;;;4947746;28;20209;-61
2023/10/28 02:13:13;;;;;;;6.43;1.80;;;;;;;;;;4939089;29;20717;-62
2023/10/28 02:15:42;;;;;;;3.38;1.48;;;;;;;;;;4944527;29;20215;-61
2023/10/28 02:18:11;;;;;;;2.63;1.55;;;;;;;;;;4959025;29;20210;-61
2023/10/28 02:20:42;;;;;;;1.55;1.45;;;;;;;;;;4956056;29;20199;-61
2023/10/28 02:23:10;;;;;;;2.05;1.60;;;;;;;;;;4941904;28;20635;-61
2023/10/28 02:25:38;;;;;;;2.28;1.83;;;;;;;;;;4956398;29;20591;-61
2023/10/28 02:28:06;;;;;;;2.20;1.45;;;;;;;;;;4956359;29;20283;-64
2023/10/28 02:30:39;;;;;;;3.38;1.40;;;;;;;;;;4941120;29;20881;-61
2023/10/28 02:33:07;;;;;;;6.47;2.00;;;;;;;;;;4944117;29;20288;-62
2023/10/28 02:35:35;;;;;;;4.35;1.55;;;;;;;;;;4947826;29;20211;-61
2023/10/28 02:38:04;;;;;;;3.90;1.27;;;;;;;;;;4949185;29;20324;-61
2023/10/28 02:40:32;;;;;;;1.50;1.33;;;;;;;;;;4950310;29;20204;-62
2023/10/28 02:43:00;;;;;;;4.50;1.15;;;;;;;;;;4951122;28;20219;-61
2023/10/28 02:45:29;;;;;;;1.90;1.08;;;;;;;;;;4926778;29;20221;-61
2023/10/28 02:47:58;;;;;;;4.75;1.25;;;;;;;;;;4928489;29;20204;-63
2023/10/28 02:50:26;;;;;;;1.35;0.80;;;;;;;;;;4949697;29;20219;-61
2023/10/28 02:52:55;;;;;;;4.43;1.33;;;;;;;;;;4946997;28;20212;-61
2023/10/28 02:55:23;;;;;;;2.25;1.05;;;;;;;;;;4940061;29;20200;-61
2023/10/28 02:57:52;;;;;;;3.38;1.60;;;;;;;;;;4938489;29;20283;-62
2023/10/28 03:00:22;;;;;;;2.55;1.30;;;;;;;;;;4939771;29;20200;-61
2023/10/28 03:02:52;;;;;;;2.67;1.45;;;;;;;;;;4943447;29;20274;-61
2023/10/28 03:05:24;;;;;;;300.80;216.35;;;;;;;;;;4955143;29;20212;-62
2023/10/28 03:07:52;;;;;;;4.20;2.25;;;;;;;;;;4956476;29;20251;-62
2023/10/28 03:10:20;;;;;;;7.10;6.40;;;;;;;;;;4956535;29;20200;-62
2023/10/28 03:12:49;;;;;;;3.03;1.70;;;;;;;;;;4941367;29;20234;-61
2023/10/28 03:15:17;;;;;;;4.72;1.70;;;;;;;;;;4938924;29;20200;-62
2023/10/28 03:17:46;;;;;;;3.80;1.98;;;;;;;;;;4938787;29;20339;-61
2023/10/28 03:20:19;;;;;;;3.80;1.60;;;;;;;;;;4951297;29;20282;-61
2023/10/28 03:22:48;;;;;;;2.92;1.35;;;;;;;;;;4956832;28;20205;-61
2023/10/28 03:25:17;;;;;;;2.55;1.00;;;;;;;;;;4950669;29;20231;-62
2023/10/28 03:27:45;;;;;;;1.98;1.20;;;;;;;;;;4938312;29;20613;-61
2023/10/28 03:30:14;;;;;;;4.47;1.20;;;;;;;;;;4937607;29;20200;-62
2023/10/28 03:32:42;;;;;;;4.22;1.67;;;;;;;;;;4938457;29;20207;-61
2023/10/28 03:35:10;;;;;;;4.88;1.50;;;;;;;;;;4950364;29;20196;-61
2023/10/28 03:37:39;;;;;;;4.15;1.35;;;;;;;;;;4955239;29;20667;-62
2023/10/28 03:40:09;;;;;;;5.20;4.80;;;;;;;;;;4946427;29;20714;-63
2023/10/28 03:42:38;;;;;;;1.42;1.33;;;;;;;;;;4938018;29;20205;-62
2023/10/28 03:45:07;;;;;;;7.50;2.28;;;;;;;;;;4938337;29;20213;-65
2023/10/28 03:47:35;;;;;;;8.27;1.98;;;;;;;;;;4938153;29;20219;-62
2023/10/28 03:50:04;;;;;;;2.97;1.25;;;;;;;;;;4936870;29;20635;-62
2023/10/28 03:52:33;;;;;;;7.70;1.80;;;;;;;;;;4938182;29;20678;-62
2023/10/28 03:55:01;;;;;;;3.17;1.25;;;;;;;;;;4939599;29;20262;-61
2023/10/28 03:57:31;;;;;;;1.77;1.67;;;;;;;;;;4953803;29;20299;-62
2023/10/28 03:59:59;;;;;;;8.13;3.67;;;;;;;;;;4957263;29;20208;-61
2023/10/28 04:02:28;;;;;;;9.85;3.28;;;;;;;;;;4950514;29;20207;-62
2023/10/28 04:04:57;;;;;;;5.43;4.18;;;;;;;;;;4944965;29;20214;-62
2023/10/28 04:07:25;;;;;;;6.07;5.55;;;;;;;;;;4941729;29;20212;-61
2023/10/28 04:09:53;;;;;;;1.98;1.80;;;;;;;;;;4936853;29;20687;-61
2023/10/28 04:12:22;;;;;;;2.78;1.90;;;;;;;;;;4939271;29;20212;-61
2023/10/28 04:14:52;;;;;;;6.85;5.85;;;;;;;;;;4937724;29;20211;-60
2023/10/28 04:17:20;;;;;;;6.88;2.90;;;;;;;;;;4940757;29;20224;-64
2023/10/28 04:19:48;;;;;;;7.40;6.75;;;;;;;;;;4948174;29;20205;-61
2023/10/28 04:22:16;;;;;;;7.10;2.40;;;;;;;;;;4937581;29;20686;-62
2023/10/28 04:24:45;;;;;;;5.78;1.80;;;;;;;;;;4938741;29;20601;-61
2023/10/28 04:27:13;;;;;;;4.38;1.90;;;;;;;;;;4938164;29;20217;-61
2023/10/28 04:29:41;;;;;;;3.10;2.13;;;;;;;;;;4955256;29;20215;-62
2023/10/28 04:32:12;;;;;;;2.58;2.38;;;;;;;;;;4941415;29;20199;-61
2023/10/28 04:34:41;;;;;;;3.00;1.70;;;;;;;;;;4939283;29;20204;-61
2023/10/28 04:37:09;;;;;;;7.97;2.03;;;;;;;;;;4943492;29;20236;-62
2023/10/28 04:39:37;;;;;;;4.65;2.25;;;;;;;;;;4943434;29;20606;-62
2023/10/28 04:42:07;;;;;;;4.57;2.15;;;;;;;;;;4956615;29;20203;-61
2023/10/28 04:44:35;;;;;;;3.53;1.45;;;;;;;;;;4940414;28;20232;-62
2023/10/28 04:47:04;;;;;;;3.70;1.77;;;;;;;;;;4943947;29;20582;-62
2023/10/28 04:49:33;;;;;;;5.95;1.85;;;;;;;;;;4950406;29;20655;-62
2023/10/28 04:52:02;;;;;;;10.52;2.05;;;;;;;;;;4957967;28;20279;-61
2023/10/28 04:54:30;;;;;;;4.97;2.28;;;;;;;;;;4959480;29;20635;-61
2023/10/28 04:56:59;;;;;;;11.77;1.95;;;;;;;;;;4960842;28;20613;-61
2023/10/28 04:59:29;;;;;;;9.68;2.13;;;;;;;;;;4961808;29;20214;-61
2023/10/28 05:01:57;;;;;;;4.30;1.50;;;;;;;;;;4947555;28;20212;-62
2023/10/28 05:04:27;;;;;;;7.38;2.20;;;;;;;;;;4957273;29;20217;-61
2023/10/28 05:06:57;;;;;;;6.18;1.98;;;;;;;;;;4941684;29;20224;-61
2023/10/28 05:09:25;;;;;;;5.07;1.90;;;;;;;;;;4943556;29;20373;-61
2023/10/28 05:11:54;;;;;;;4.53;1.40;;;;;;;;;;4943954;29;20196;-61
2023/10/28 05:14:23;;;;;;;4.50;1.90;;;;;;;;;;4951553;28;20204;-61
2023/10/28 05:16:52;;;;;;;5.45;4.50;;;;;;;;;;4943078;29;20197;-60
2023/10/28 05:19:26;;;;;;;7.13;2.03;;;;;;;;;;4949240;29;20243;-64
2023/10/28 05:21:56;;;;;;;5.60;2.42;;;;;;;;;;4959526;28;20684;-63
2023/10/28 05:24:25;;;;;;;7.50;5.82;;;;;;;;;;4945140;29;20214;-63
2023/10/28 05:26:53;;;;;;;1.95;1.58;;;;;;;;;;4953432;28;20216;-63
2023/10/28 05:29:21;;;;;;;3.25;2.13;;;;;;;;;;4948354;29;20211;-65
2023/10/28 05:31:51;;;;;;;5.45;3.17;;;;;;;;;;4950366;29;20261;-63
2023/10/28 05:34:23;;;;;;;2.30;2.10;;;;;;;;;;4948918;29;20216;-63
2023/10/28 05:36:51;;;;;;;3.70;1.90;;;;;;;;;;4948120;29;20200;-62
2023/10/28 05:39:21;;;;;;;9.52;2.33;;;;;;;;;;4945193;29;20245;-63
2023/10/28 05:41:49;;;;;;;7.63;2.60;;;;;;;;;;4952918;29;20675;-63
2023/10/28 05:44:17;;;;;;;7.93;1.85;;;;;;;;;;4944080;28;20227;-63
2023/10/28 05:46:45;;;;;;;4.70;1.85;;;;;;;;;;4950223;29;20223;-63
2023/10/28 05:49:14;;;;;;;3.55;2.10;;;;;;;;;;4958395;29;20207;-64
2023/10/28 05:51:43;;;;;;;10.20;2.85;;;;;;;;;;4948929;29;20222;-63
2023/10/28 05:54:11;;;;;;;6.43;1.90;;;;;;;;;;4940636;29;20205;-63
2023/10/28 05:56:41;;;;;;;4.10;3.38;;;;;;;;;;4942367;29;20193;-63
2023/10/28 05:59:09;;;;;;;1.50;1.40;;;;;;;;;;4938650;29;20204;-63
2023/10/28 06:01:37;;;;;;;5.82;2.00;;;;;;;;;;4937668;29;20205;-63
2023/10/28 06:04:05;;;;;;;4.13;3.60;;;;;;;;;;4946752;29;20200;-65
2023/10/28 06:06:33;;;;;;;4.65;2.08;;;;;;;;;;4949776;29;20228;-63
2023/10/28 06:09:01;;;;;;;10.63;4.85;;;;;;;;;;4939174;29;20218;-63
2023/10/28 06:11:29;;;;;;;13.07;11.98;;;;;;;;;;4927676;29;20207;-63
2023/10/28 06:13:59;;;;;;;5.75;2.50;;;;;;;;;;4942882;29;20197;-63
2023/10/28 06:16:27;;;;;;;7.80;2.15;;;;;;;;;;4939878;29;20200;-63
2023/10/28 06:18:55;;;;;;;7.43;1.95;;;;;;;;;;4947234;29;20231;-63
2023/10/28 06:21:23;;;;;;;7.30;1.83;;;;;;;;;;4951480;29;20260;-61
2023/10/28 06:23:51;;;;;;;2.08;1.92;;;;;;;;;;4949986;29;20263;-68
2023/10/28 06:26:19;;;;;;;3.20;1.48;;;;;;;;;;4950285;29;20228;-68
2023/10/28 06:28:47;;;;;;;2.05;1.50;;;;;;;;;;4951689;29;20260;-68
2023/10/28 06:31:17;;;;;;;9.55;2.17;;;;;;;;;;4950901;29;20278;-68
2023/10/28 06:33:45;;;;;;;1.77;1.20;;;;;;;;;;4949463;29;20201;-68
2023/10/28 06:36:13;;;;;;;3.33;2.03;;;;;;;;;;4944811;29;20259;-69
2023/10/28 06:38:41;;;;;;;8.98;1.70;;;;;;;;;;4946147;29;20305;-68
2023/10/28 06:41:10;;;;;;;5.65;1.85;;;;;;;;;;4950730;29;20287;-68
2023/10/28 06:43:38;;;;;;;4.32;1.70;;;;;;;;;;4948886;29;20723;-68
2023/10/28 06:46:06;;;;;;;3.33;1.70;;;;;;;;;;4944717;29;20323;-66
2023/10/28 06:48:36;;;;;;;6.80;5.03;;;;;;;;;;4952347;29;20311;-68
2023/10/28 06:51:06;;;;;;;7.13;2.35;;;;;;;;;;4952752;29;20255;-67
2023/10/28 06:53:34;;;;;;;5.82;1.55;;;;;;;;;;4951737;29;20740;-68
2023/10/28 06:56:03;;;;;;;3.63;1.70;;;;;;;;;;4950556;29;20760;-68
2023/10/28 06:58:32;;;;;;;2.72;1.85;;;;;;;;;;4954981;28;20252;-68
2023/10/28 07:01:00;;;;;;;2.55;1.55;;;;;;;;;;4954656;29;20259;-69
2023/10/28 07:03:28;;;;;;;3.70;1.50;;;;;;;;;;4957740;29;20754;-68
2023/10/28 07:05:58;;;;;;;2.88;1.60;;;;;;;;;;4963077;29;20294;-67
2023/10/28 07:08:26;;;;;;;2.65;1.40;;;;;;;;;;4944228;29;20224;-64
2023/10/28 07:10:55;;;;;;;7.47;1.48;;;;;;;;;;4936912;29;20211;-64
2023/10/28 07:13:23;;;;;;;3.75;2.00;;;;;;;;;;4936519;29;20208;-64
2023/10/28 07:16:01;;;;;;;2.85;1.23;;;;;;;;;;4937430;29;20204;-64
2023/10/28 07:18:30;;;;;;;7.78;1.48;;;;;;;;;;4938848;29;20189;-64
2023/10/28 07:21:00;;;;;;;7.45;2.47;;;;;;;;;;4938251;29;20689;-64
2023/10/28 07:23:30;;;;;;;7.03;2.10;;;;;;;;;;4955949;29;20726;-64
2023/10/28 07:26:01;;;;;;;2.13;1.13;;;;;;;;;;4953850;29;20200;-64
2023/10/28 07:28:33;;;;;;;2.78;1.48;;;;;;;;;;4940894;29;20212;-65
2023/10/28 07:31:02;;;;;;;3.72;2.45;;;;;;;;;;4943816;29;20200;-64
2023/10/28 07:33:30;;;;;;;7.82;1.92;;;;;;;;;;4937797;29;20200;-64
2023/10/28 07:36:02;;;;;;;2.55;1.45;;;;;;;;;;4936365;29;20679;-64
2023/10/28 07:38:30;;;;;;;4.13;1.48;;;;;;;;;;4940143;29;20236;-64
2023/10/28 07:40:58;;;;;;;3.63;1.65;;;;;;;;;;4938204;29;20200;-64
2023/10/28 07:43:27;;;;;;;4.43;2.38;;;;;;;;;;4936532;29;20592;-64
2023/10/28 07:45:56;;;;;;;3.83;2.05;;;;;;;;;;4929446;29;20267;-64
2023/10/28 07:48:26;;;;;;;5.75;2.00;;;;;;;;;;4945300;29;20690;-64
2023/10/28 07:50:54;;;;;;;4.13;1.70;;;;;;;;;;4940696;29;20338;-64
2023/10/28 07:53:24;;;;;;;5.10;2.10;;;;;;;;;;4901357;29;20209;-64
2023/10/28 07:55:52;;;;;;;3.90;1.70;;;;;;;;;;4928790;29;20612;-64
2023/10/28 07:58:20;;;;;;;7.47;2.22;;;;;;;;;;4935805;29;20263;-64
2023/10/28 08:00:49;;;;;;;1.65;1.45;;;;;;;;;;4935829;29;20204;-64
2023/10/28 08:03:18;;;;;;;2.55;1.75;;;;;;;;;;4934853;29;20665;-65
2023/10/28 08:05:46;;;;;;;4.30;1.95;;;;;;;;;;4930994;29;20209;-64
2023/10/28 08:08:14;;;;;;;4.65;1.30;;;;;;;;;;4934854;29;20247;-64
2023/10/28 08:10:45;;;;;;;3.10;1.58;;;;;;;;;;4934584;29;20212;-64
2023/10/28 08:13:13;;;;;;;2.92;1.40;;;;;;;;;;4949214;29;20562;-64
2023/10/28 08:15:41;;;;;;;5.25;1.60;;;;;;;;;;4945667;28;20656;-64
2023/10/28 08:18:10;;;;;;;2.53;1.85;;;;;;;;;;4935879;29;20205;-64
2023/10/28 08:20:39;;;;;;;4.65;1.80;;;;;;;;;;4936860;29;20230;-65
2023/10/28 08:23:07;;;;;;;4.22;2.00;;;;;;;;;;4936128;29;20209;-64
2023/10/28 08:25:35;;;;;;;10.57;1.90;;;;;;;;;;4937694;29;20197;-65
2023/10/28 08:28:05;;;;;;;3.25;1.90;;;;;;;;;;4949482;29;20216;-64
2023/10/28 08:30:35;;;;;;;4.00;1.83;;;;;;;;;;4948729;29;20252;-65
2023/10/28 08:33:03;;;;;;;2.10;1.50;;;;;;;;;;4940307;29;20649;-64
2023/10/28 08:35:32;;;;;;;4.07;1.75;;;;;;;;;;4929578;29;20201;-64
2023/10/28 08:38:05;;;;;;;3.35;1.90;;;;;;;;;;4934125;29;20614;-64
2023/10/28 08:40:33;;;;;;;5.05;2.25;;;;;;;;;;4936254;29;20197;-64
2023/10/28 08:43:03;;;;;;;2.95;1.40;;;;;;;;;;4933030;29;20594;-65
2023/10/28 08:45:33;;;;;;;1.50;1.23;;;;;;;;;;4927482;29;20211;-63
2023/10/28 08:48:01;;;;;;;5.93;1.93;;;;;;;;;;4933622;29;20639;-63
2023/10/28 08:50:30;;;;;;;3.70;1.80;;;;;;;;;;4934183;29;20971;-63
2023/10/28 08:52:59;;;;;;;3.60;1.47;;;;;;;;;;4917383;29;20630;-64
2023/10/28 08:55:27;;;;;;;4.97;2.10;;;;;;;;;;4932411;29;20646;-64
2023/10/28 08:57:55;;;;;;;2.75;1.70;;;;;;;;;;4935613;29;20661;-64
2023/10/28 09:00:26;;;;;;;2.23;1.40;;;;;;;;;;4934795;29;20211;-63
2023/10/28 09:02:58;;;;;;;2.28;1.60;;;;;;;;;;4932514;29;20609;-64
2023/10/28 09:05:26;;;;;;;6.70;2.05;;;;;;;;;;4939722;29;20721;-64
2023/10/28 09:07:55;;;;;;;6.23;1.80;;;;;;;;;;4949829;29;20571;-63
2023/10/28 09:10:24;;;;;;;3.13;1.50;;;;;;;;;;4938958;29;20632;-63
2023/10/28 09:12:52;;;;;;;2.40;1.63;;;;;;;;;;4935009;29;21007;-63
2023/10/28 09:15:22;;;;;;;6.18;1.83;;;;;;;;;;4940778;29;20627;-64
2023/10/28 09:17:51;;;;;;;4.87;1.20;;;;;;;;;;4933674;29;20201;-63
2023/10/28 09:20:21;;;;;;;7.27;1.90;;;;;;;;;;4934566;29;20642;-63
2023/10/28 09:22:49;;;;;;;4.37;1.60;;;;;;;;;;4935854;29;20598;-64
2023/10/28 09:25:18;;;;;;;3.77;1.70;;;;;;;;;;4943582;29;20616;-64
2023/10/28 09:27:46;;;;;;;2.60;1.40;;;;;;;;;;4940030;29;20998;-63
2023/10/28 09:30:15;;;;;;;3.70;1.50;;;;;;;;;;4935732;29;21216;-64
2023/10/28 09:32:44;;;;;;;3.43;1.60;;;;;;;;;;4940129;29;20614;-63
2023/10/28 09:35:13;;;;;;;4.23;1.20;;;;;;;;;;4938663;29;20641;-63
2023/10/28 09:37:44;;;;;;;7.20;2.40;;;;;;;;;;4941905;29;20980;-63
2023/10/28 09:40:13;;;;;;;3.60;1.73;;;;;;;;;;4935339;29;20615;-64
2023/10/28 09:42:43;;;;;;;5.00;1.30;;;;;;;;;;4937906;29;20623;-64
2023/10/28 09:45:11;;;;;;;2.17;1.47;;;;;;;;;;4930999;29;20598;-63
2023/10/28 09:47:44;;;;;;;6.10;1.60;;;;;;;;;;4938109;29;20613;-63
2023/10/28 09:50:15;;;;;;;9.03;1.70;;;;;;;;;;4938788;29;20600;-63
2023/10/28 09:52:45;;;;;;;3.27;1.20;;;;;;;;;;4937688;29;20699;-63
2023/10/28 09:55:15;;;;;;;7.20;1.90;;;;;;;;;;4937521;29;20583;-64
2023/10/28 09:57:44;;;;;;;7.57;1.80;;;;;;;;;;4938516;29;21250;-63
2023/10/28 10:00:17;;;;;;;2.33;1.63;;;;;;;;;;4940727;29;20618;-63
2023/10/28 10:02:55;;;;;;;4.50;1.47;;;;;;;;;;4937306;29;20619;-64
2023/10/28 10:05:27;;;;;;;4.27;1.60;;;;;;;;;;4936154;29;20612;-63
2023/10/28 10:07:56;;;;;;;4.93;1.40;;;;;;;;;;4953019;29;20586;-63
2023/10/28 10:10:24;;;;;;;2.70;1.30;;;;;;;;;;4952818;29;20642;-63
2023/10/28 10:13:02;;;;;;;3.20;1.83;;;;;;;;;;4951676;29;20602;-63
2023/10/28 10:15:33;;;;;;;6.47;2.90;;;;;;;;;;4943674;29;20616;-63
2023/10/28 10:18:09;;;;;;;2.50;1.40;;;;;;;;;;4950339;29;20607;-63
2023/10/28 10:20:38;;;;;;;5.37;1.90;;;;;;;;;;4948940;29;20629;-64
2023/10/28 10:23:09;;;;;;;3.37;1.33;;;;;;;;;;4952940;29;20616;-65
2023/10/28 10:25:39;;;;;;;4.03;1.80;;;;;;;;;;4935280;29;20587;-64
2023/10/28 10:28:13;;;;;;;5.47;1.83;;;;;;;;;;4934770;29;20963;-65
2023/10/28 10:30:42;;;;;;;6.80;1.47;;;;;;;;;;4940851;28;20586;-65
2023/10/28 10:33:10;;;;;;;1.80;1.60;;;;;;;;;;4955837;29;20634;-64
2023/10/28 10:35:39;;;;;;;3.57;1.53;;;;;;;;;;4950838;29;20594;-64
2023/10/28 10:38:09;;;;;;;4.70;2.17;;;;;;;;;;4937044;29;20674;-64
2023/10/28 10:40:50;;;;;;;4.43;1.60;;;;;;;;;;4937022;29;20599;-65
2023/10/28 10:43:20;;;;;;;3.10;1.63;;;;;;;;;;4934216;29;20634;-65
2023/10/28 10:45:48;;;;;;;2.93;1.33;;;;;;;;;;4935173;29;20644;-65
2023/10/28 10:48:18;;;;;;;3.70;1.70;;;;;;;;;;4935248;29;20644;-65
2023/10/28 10:50:46;;;;;;;2.10;1.53;;;;;;;;;;4941323;29;21197;-64
2023/10/28 10:53:16;;;;;;;4.83;1.97;;;;;;;;;;4936946;29;20631;-65
2023/10/28 10:55:44;;;;;;;5.97;1.70;;;;;;;;;;4939869;29;20621;-65
2023/10/28 10:58:12;;;;;;;2.73;1.30;;;;;;;;;;4945982;29;20635;-65
2023/10/28 11:00:41;;;;;;;8.10;1.90;;;;;;;;;;4938300;29;20632;-65
2023/10/28 11:03:11;;;;;;;2.77;1.97;;;;;;;;;;4936249;29;20637;-65
2023/10/28 11:05:40;;;;;;;6.73;1.83;;;;;;;;;;4942116;29;20595;-64
2023/10/28 11:08:09;;;;;;;4.97;1.97;;;;;;;;;;4934688;29;20639;-65
2023/10/28 11:10:40;;;;;;;5.37;1.77;;;;;;;;;;4937062;29;20633;-65
2023/10/28 11:13:08;;;;;;;7.40;3.30;;;;;;;;;;4941706;29;20615;-65
2023/10/28 11:15:36;;;;;;;5.17;1.80;;;;;;;;;;4937249;29;20636;-65
2023/10/28 11:18:07;;;;;;;4.10;2.80;;;;;;;;;;4939988;29;20599;-65
2023/10/28 11:20:35;;;;;;;3.97;1.73;;;;;;;;;;4951164;29;20649;-66
2023/10/28 11:23:04;;;;;;;7.33;1.70;;;;;;;;;;4940477;29;20642;-65
2023/10/28 11:25:32;;;;;;;3.80;2.03;;;;;;;;;;4945830;29;20631;-65
2023/10/28 11:28:07;;;;;;;5.67;2.70;;;;;;;;;;4941419;29;21201;-65
2023/10/28 11:30:37;;;;;;;3.10;1.50;;;;;;;;;;4941158;29;20651;-64
2023/10/28 11:33:08;;;;;;;5.93;2.53;;;;;;;;;;4947074;29;20654;-64
2023/10/28 11:35:37;;;;;;;4.70;3.17;;;;;;;;;;4941313;29;20626;-66
2023/10/28 11:38:06;;;;;;;5.73;2.80;;;;;;;;;;4943611;29;20656;-64
2023/10/28 11:40:34;;;;;;;3.77;1.90;;;;;;;;;;4944933;29;20669;-63
2023/10/28 11:43:04;;;;;;;6.23;2.70;;;;;;;;;;4942152;28;20650;-63
2023/10/28 11:45:34;;;;;;;4.60;1.60;;;;;;;;;;4943951;29;20615;-65
2023/10/28 11:48:03;;;;;;;6.33;1.83;;;;;;;;;;4939034;29;20628;-65
2023/10/28 11:50:31;;;;;;;4.70;1.60;;;;;;;;;;4935820;29;20639;-63
2023/10/28 11:52:59;;;;;;;6.63;1.67;;;;;;;;;;4940826;29;20699;-64
2023/10/28 11:55:27;;;;;;;7.13;1.90;;;;;;;;;;4938406;29;20636;-65
2023/10/28 11:57:56;;;;;;;3.30;2.47;;;;;;;;;;4935647;29;20640;-65
2023/10/28 12:00:26;;;;;;;6.53;3.00;;;;;;;;;;4952879;29;20689;-65
2023/10/28 12:02:55;;;;;;;4.37;2.47;;;;;;;;;;4943401;29;20633;-65
2023/10/28 12:05:24;;;;;;;5.70;1.83;;;;;;;;;;4932405;29;20607;-64
2023/10/28 12:07:52;;;;;;;12.07;2.40;;;;;;;;;;4933919;29;20663;-66
2023/10/28 12:10:20;;;;;;;4.00;1.70;;;;;;;;;;4937070;29;20674;-65
2023/10/28 12:12:48;;;;;;;5.70;1.93;;;;;;;;;;4934591;29;20635;-65
2023/10/28 12:15:17;;;;;;;3.50;2.10;;;;;;;;;;4933577;29;20628;-65
2023/10/28 12:17:46;;;;;;;2.43;2.00;;;;;;;;;;4934931;29;20628;-64
2023/10/28 12:20:17;;;;;;;4.77;2.67;;;;;;;;;;4933204;29;20966;-66
2023/10/28 12:22:45;;;;;;;9.93;2.10;;;;;;;;;;4933950;29;21214;-64
2023/10/28 12:25:14;;;;;;;3.37;1.60;;;;;;;;;;4935033;29;20648;-65
2023/10/28 12:27:42;;;;;;;8.37;2.93;;;;;;;;;;4935617;29;20620;-65
2023/10/28 12:30:11;;;;;;;10.90;2.43;;;;;;;;;;4935487;29;21025;-65
2023/10/28 12:32:39;;;;;;;7.37;2.30;;;;;;;;;;4933455;29;20618;-64
2023/10/28 12:35:08;;;;;;;5.97;1.93;;;;;;;;;;4934278;29;20644;-65
2023/10/28 12:37:37;;;;;;;2.80;1.77;;;;;;;;;;4938617;29;20672;-65
2023/10/28 12:40:06;;;;;;;6.23;2.13;;;;;;;;;;4936238;29;20579;-64
2023/10/28 12:42:36;;;;;;;8.27;2.30;;;;;;;;;;4933168;29;20616;-65
2023/10/28 12:45:04;;;;;;;7.20;2.60;;;;;;;;;;4925969;29;21195;-65
2023/10/28 12:47:33;;;;;;;4.47;2.20;;;;;;;;;;4932967;29;20720;-65
2023/10/28 12:50:02;;;;;;;8.00;2.60;;;;;;;;;;4937493;29;20660;-64
2023/10/28 12:52:31;;;;;;;7.10;2.63;;;;;;;;;;4935344;29;20633;-64
2023/10/28 12:55:02;;;;;;;6.10;2.63;;;;;;;;;;4936073;29;20633;-64
2023/10/28 12:57:30;;;;;;;4.67;2.47;;;;;;;;;;4938642;29;20612;-64
2023/10/28 12:59:58;;;;;;;10.53;4.50;;;;;;;;;;4946172;29;21198;-64
2023/10/28 13:02:26;;;;;;;6.23;2.73;;;;;;;;;;4949498;29;20632;-65
2023/10/28 13:04:55;;;;;;;6.87;2.90;;;;;;;;;;4932758;29;20615;-64
2023/10/28 13:07:24;;;;;;;5.45;2.20;;;;;;;;;;4932927;29;20945;-65
2023/10/28 13:09:52;;;;;;;11.00;2.27;;;;;;;;;;4937360;29;20299;-64
2023/10/28 13:15:55;;;;;;;4.17;2.67;;;;;;;;;;4929182;29;20583;-64
2023/10/28 13:18:23;;;;;;;8.40;2.65;;;;;;;;;;4928553;29;20606;-64
2023/10/28 13:20:51;;;;;;;6.87;2.20;;;;;;;;;;4937285;29;20205;-66
2023/10/28 13:23:20;;;;;;;5.73;2.10;;;;;;;;;;4926517;29;20605;-64
2023/10/28 13:25:48;;;;;;;3.60;1.83;;;;;;;;;;4936168;29;20603;-65
2023/10/28 13:28:18;;;;;;;5.10;2.30;;;;;;;;;;4934649;29;21042;-65
2023/10/28 13:30:46;;;;;;;3.60;2.50;;;;;;;;;;4936947;29;20696;-64
2023/10/28 13:33:16;;;;;;;5.97;2.83;;;;;;;;;;4937505;29;20624;-64
2023/10/28 13:35:44;;;;;;;9.47;4.43;;;;;;;;;;4937090;29;20963;-64
2023/10/28 13:38:15;;;;;;;5.57;2.35;;;;;;;;;;4936494;29;20666;-64
2023/10/28 13:40:44;;;;;;;4.47;2.40;;;;;;;;;;4937523;29;20204;-64
2023/10/28 13:43:12;;;;;;;5.77;2.80;;;;;;;;;;4934794;29;20229;-64
2023/10/28 13:45:41;;;;;;;11.17;5.00;;;;;;;;;;4935246;29;20994;-64
2023/10/28 13:48:09;;;;;;;8.80;3.33;;;;;;;;;;4937219;29;20629;-64
2023/10/28 13:50:38;;;;;;;4.77;2.17;;;;;;;;;;4935999;29;20668;-65
2023/10/28 13:53:07;;;;;;;6.23;2.70;;;;;;;;;;4925418;29;20687;-65
2023/10/28 13:55:35;;;;;;;6.10;3.40;;;;;;;;;;4936995;29;20620;-64
2023/10/28 13:58:03;;;;;;;7.63;2.83;;;;;;;;;;4936939;29;20619;-65
2023/10/28 14:00:32;;;;;;;6.00;2.10;;;;;;;;;;4936812;29;20993;-64
2023/10/28 14:03:01;;;;;;;11.73;4.80;;;;;;;;;;4935954;29;20648;-64
2023/10/28 14:05:30;;;;;;;11.17;5.80;;;;;;;;;;4935542;29;20603;-64
2023/10/28 14:07:59;;;;;;;5.30;2.80;;;;;;;;;;4936483;29;20638;-64
2023/10/28 14:10:27;;;;;;;4.60;2.23;;;;;;;;;;4936643;29;20668;-64
2023/10/28 14:12:56;;;;;;;4.70;2.50;;;;;;;;;;4936300;29;21699;-65
2023/10/28 14:15:24;;;;;;;7.70;2.80;;;;;;;;;;4936894;29;20634;-64
2023/10/28 14:17:52;;;;;;;7.67;3.03;;;;;;;;;;4937121;29;20625;-64
2023/10/28 14:20:21;;;;;;;6.40;3.50;;;;;;;;;;4936623;29;20638;-64
2023/10/28 14:22:50;;;;;;;11.73;4.07;;;;;;;;;;4936017;29;20670;-64
2023/10/28 14:25:20;;;;;;;8.80;3.07;;;;;;;;;;4936629;29;20611;-64
2023/10/28 14:27:48;;;;;;;10.90;3.20;;;;;;;;;;4935722;29;20604;-64
2023/10/28 14:30:17;;;;;;;13.63;2.50;;;;;;;;;;4935512;29;20694;-64
2023/10/28 14:32:45;;;;;;;5.40;3.10;;;;;;;;;;4937033;29;20632;-64
2023/10/28 14:35:13;;;;;;;4.00;2.90;;;;;;;;;;4935760;29;20609;-63
2023/10/28 14:37:42;;;;;;;12.43;3.70;;;;;;;;;;4936926;29;20647;-63
2023/10/28 14:40:11;;;;;;;12.10;3.80;;;;;;;;;;4936196;29;20624;-63
2023/10/28 14:42:43;;;;;;;6.13;3.17;;;;;;;;;;4927130;29;20990;-65
2023/10/28 14:45:12;;;;;;;5.77;4.40;;;;;;;;;;4931224;29;21201;-64
2023/10/28 14:47:43;;;;;;;10.20;4.60;;;;;;;;;;4924206;29;20595;-64
2023/10/28 14:50:13;;;;;;;6.60;2.70;;;;;;;;;;4924569;29;20634;-65
2023/10/28 14:52:42;;;;;;;11.00;3.20;;;;;;;;;;4936554;29;21116;-64
2023/10/28 14:55:10;;;;;;;10.60;2.63;;;;;;;;;;4948399;29;20703;-64
2023/10/28 14:57:38;;;;;;;6.03;3.30;;;;;;;;;;4959515;29;20666;-64